sensor_id;sensor_type;location;lat;lon;timestamp;P1;durP1;ratioP1;P2;durP2;ratioP2
35578;SDS011;21687;48.900;9.188;2024-02-26T00:00:57;3.23;;;2.40;;
35578;SDS011;21687;48.900;9.188;2024-02-26T00:03:24;2.10;;;1.90;;
35578;SDS011;21687;48.900;9.188;2024-02-26T00:05:50;2.73;;;1.87;;
35578;SDS011;21687;48.900;9.188;2024-02-26T00:08:16;2.27;;;2.07;;
35578;SDS011;21687;48.900;9.188;2024-02-26T00:10:43;2.40;;;2.00;;
35578;SDS011;21687;48.900;9.188;2024-02-26T00:13:09;2.50;;;2.30;;
35578;SDS011;21687;48.900;9.188;2024-02-26T00:15:35;2.70;;;2.10;;
35578;SDS011;21687;48.900;9.188;2024-02-26T00:18:01;2.90;;;2.00;;
35578;SDS011;21687;48.900;9.188;2024-02-26T00:20:28;3.43;;;2.20;;
35578;SDS011;21687;48.900;9.188;2024-02-26T00:22:54;2.47;;;2.17;;
35578;SDS011;21687;48.900;9.188;2024-02-26T00:25:20;3.53;;;2.10;;
35578;SDS011;21687;48.900;9.188;2024-02-26T00:27:46;1.77;;;1.67;;
35578;SDS011;21687;48.900;9.188;2024-02-26T00:30:13;2.20;;;1.97;;
35578;SDS011;21687;48.900;9.188;2024-02-26T00:32:39;3.30;;;1.93;;
35578;SDS011;21687;48.900;9.188;2024-02-26T00:35:05;2.30;;;2.10;;
35578;SDS011;21687;48.900;9.188;2024-02-26T00:37:32;2.00;;;1.90;;
35578;SDS011;21687;48.900;9.188;2024-02-26T00:39:58;2.27;;;2.00;;
35578;SDS011;21687;48.900;9.188;2024-02-26T00:42:25;2.37;;;2.00;;
35578;SDS011;21687;48.900;9.188;2024-02-26T00:44:51;2.83;;;2.23;;
35578;SDS011;21687;48.900;9.188;2024-02-26T00:47:17;2.03;;;1.90;;
35578;SDS011;21687;48.900;9.188;2024-02-26T00:49:43;2.20;;;2.00;;
35578;SDS011;21687;48.900;9.188;2024-02-26T00:52:10;3.13;;;1.90;;
35578;SDS011;21687;48.900;9.188;2024-02-26T00:54:36;2.10;;;1.90;;
35578;SDS011;21687;48.900;9.188;2024-02-26T00:57:02;2.40;;;1.90;;
35578;SDS011;21687;48.900;9.188;2024-02-26T00:59:29;2.47;;;2.07;;
35578;SDS011;21687;48.900;9.188;2024-02-26T01:01:55;2.30;;;2.10;;
35578;SDS011;21687;48.900;9.188;2024-02-26T01:04:23;2.37;;;1.80;;
35578;SDS011;21687;48.900;9.188;2024-02-26T01:06:50;2.00;;;1.90;;
35578;SDS011;21687;48.900;9.188;2024-02-26T01:09:16;2.37;;;2.17;;
35578;SDS011;21687;48.900;9.188;2024-02-26T01:11:43;2.13;;;1.93;;
35578;SDS011;21687;48.900;9.188;2024-02-26T01:14:09;2.10;;;1.90;;
35578;SDS011;21687;48.900;9.188;2024-02-26T01:16:35;2.67;;;2.40;;
35578;SDS011;21687;48.900;9.188;2024-02-26T01:19:02;2.27;;;2.07;;
35578;SDS011;21687;48.900;9.188;2024-02-26T01:21:28;3.73;;;2.20;;
35578;SDS011;21687;48.900;9.188;2024-02-26T01:23:55;4.77;;;2.20;;
35578;SDS011;21687;48.900;9.188;2024-02-26T01:26:21;2.77;;;2.40;;
35578;SDS011;21687;48.900;9.188;2024-02-26T01:28:48;3.97;;;2.13;;
35578;SDS011;21687;48.900;9.188;2024-02-26T01:31:14;2.87;;;2.20;;
35578;SDS011;21687;48.900;9.188;2024-02-26T01:33:41;3.10;;;2.23;;
35578;SDS011;21687;48.900;9.188;2024-02-26T01:36:07;1.90;;;1.80;;
35578;SDS011;21687;48.900;9.188;2024-02-26T01:38:33;2.13;;;1.87;;
35578;SDS011;21687;48.900;9.188;2024-02-26T01:41:00;2.57;;;2.07;;
35578;SDS011;21687;48.900;9.188;2024-02-26T01:43:26;1.90;;;1.80;;
35578;SDS011;21687;48.900;9.188;2024-02-26T01:45:52;2.20;;;2.00;;
35578;SDS011;21687;48.900;9.188;2024-02-26T01:48:20;2.10;;;1.90;;
35578;SDS011;21687;48.900;9.188;2024-02-26T01:50:46;2.17;;;1.90;;
35578;SDS011;21687;48.900;9.188;2024-02-26T01:53:12;2.93;;;2.20;;
35578;SDS011;21687;48.900;9.188;2024-02-26T01:55:39;2.27;;;2.00;;
35578;SDS011;21687;48.900;9.188;2024-02-26T01:58:05;2.43;;;2.10;;
35578;SDS011;21687;48.900;9.188;2024-02-26T02:00:32;2.47;;;2.27;;
35578;SDS011;21687;48.900;9.188;2024-02-26T02:02:58;2.30;;;2.10;;
35578;SDS011;21687;48.900;9.188;2024-02-26T02:05:25;2.60;;;2.27;;
35578;SDS011;21687;48.900;9.188;2024-02-26T02:07:52;2.63;;;2.20;;
35578;SDS011;21687;48.900;9.188;2024-02-26T02:10:19;2.20;;;2.00;;
35578;SDS011;21687;48.900;9.188;2024-02-26T02:12:48;3.07;;;1.80;;
35578;SDS011;21687;48.900;9.188;2024-02-26T02:15:15;2.80;;;2.10;;
35578;SDS011;21687;48.900;9.188;2024-02-26T02:17:41;2.20;;;2.00;;
35578;SDS011;21687;48.900;9.188;2024-02-26T02:20:08;2.87;;;2.50;;
35578;SDS011;21687;48.900;9.188;2024-02-26T02:22:40;3.63;;;2.20;;
35578;SDS011;21687;48.900;9.188;2024-02-26T02:25:06;2.50;;;2.30;;
35578;SDS011;21687;48.900;9.188;2024-02-26T02:27:32;2.37;;;2.00;;
35578;SDS011;21687;48.900;9.188;2024-02-26T02:29:59;3.13;;;2.40;;
35578;SDS011;21687;48.900;9.188;2024-02-26T02:32:26;3.83;;;2.07;;
35578;SDS011;21687;48.900;9.188;2024-02-26T02:34:54;2.13;;;1.97;;
35578;SDS011;21687;48.900;9.188;2024-02-26T02:37:21;2.33;;;2.03;;
35578;SDS011;21687;48.900;9.188;2024-02-26T02:39:48;2.70;;;2.10;;
35578;SDS011;21687;48.900;9.188;2024-02-26T02:42:14;1.70;;;1.60;;
35578;SDS011;21687;48.900;9.188;2024-02-26T02:44:41;2.37;;;1.70;;
35578;SDS011;21687;48.900;9.188;2024-02-26T02:47:07;2.10;;;1.90;;
35578;SDS011;21687;48.900;9.188;2024-02-26T02:49:33;5.63;;;2.20;;
35578;SDS011;21687;48.900;9.188;2024-02-26T02:52:00;3.03;;;2.00;;
35578;SDS011;21687;48.900;9.188;2024-02-26T02:54:26;3.83;;;2.30;;
35578;SDS011;21687;48.900;9.188;2024-02-26T02:56:52;2.20;;;2.00;;
35578;SDS011;21687;48.900;9.188;2024-02-26T02:59:18;3.33;;;2.00;;
35578;SDS011;21687;48.900;9.188;2024-02-26T03:01:45;2.30;;;2.10;;
35578;SDS011;21687;48.900;9.188;2024-02-26T03:04:12;2.30;;;2.07;;
35578;SDS011;21687;48.900;9.188;2024-02-26T03:06:38;2.20;;;2.00;;
35578;SDS011;21687;48.900;9.188;2024-02-26T03:09:04;2.43;;;2.23;;
35578;SDS011;21687;48.900;9.188;2024-02-26T03:11:31;4.50;;;2.10;;
35578;SDS011;21687;48.900;9.188;2024-02-26T03:13:57;2.37;;;2.17;;
35578;SDS011;21687;48.900;9.188;2024-02-26T03:16:23;2.20;;;2.00;;
35578;SDS011;21687;48.900;9.188;2024-02-26T03:18:50;2.10;;;1.90;;
35578;SDS011;21687;48.900;9.188;2024-02-26T03:21:16;2.30;;;2.10;;
35578;SDS011;21687;48.900;9.188;2024-02-26T03:23:43;3.50;;;1.83;;
35578;SDS011;21687;48.900;9.188;2024-02-26T03:26:09;2.00;;;1.80;;
35578;SDS011;21687;48.900;9.188;2024-02-26T03:28:38;5.80;;;2.00;;
35578;SDS011;21687;48.900;9.188;2024-02-26T03:31:05;1.73;;;1.63;;
35578;SDS011;21687;48.900;9.188;2024-02-26T03:33:31;2.40;;;1.90;;
35578;SDS011;21687;48.900;9.188;2024-02-26T03:35:57;2.20;;;2.00;;
35578;SDS011;21687;48.900;9.188;2024-02-26T03:38:24;2.17;;;1.80;;
35578;SDS011;21687;48.900;9.188;2024-02-26T03:40:50;3.47;;;2.50;;
35578;SDS011;21687;48.900;9.188;2024-02-26T03:43:16;2.57;;;1.93;;
35578;SDS011;21687;48.900;9.188;2024-02-26T03:45:43;2.03;;;1.83;;
35578;SDS011;21687;48.900;9.188;2024-02-26T03:48:09;2.17;;;1.87;;
35578;SDS011;21687;48.900;9.188;2024-02-26T03:50:35;2.20;;;1.80;;
35578;SDS011;21687;48.900;9.188;2024-02-26T03:53:01;2.10;;;1.90;;
35578;SDS011;21687;48.900;9.188;2024-02-26T03:55:28;2.20;;;2.00;;
35578;SDS011;21687;48.900;9.188;2024-02-26T03:57:54;3.13;;;2.30;;
35578;SDS011;21687;48.900;9.188;2024-02-26T04:00:21;2.27;;;2.07;;
35578;SDS011;21687;48.900;9.188;2024-02-26T04:02:47;3.50;;;2.83;;
35578;SDS011;21687;48.900;9.188;2024-02-26T04:05:14;2.40;;;2.20;;
35578;SDS011;21687;48.900;9.188;2024-02-26T04:07:40;2.80;;;2.43;;
35578;SDS011;21687;48.900;9.188;2024-02-26T04:10:10;3.23;;;2.27;;
35578;SDS011;21687;48.900;9.188;2024-02-26T04:12:39;3.37;;;2.47;;
35578;SDS011;21687;48.900;9.188;2024-02-26T04:15:07;2.20;;;2.00;;
35578;SDS011;21687;48.900;9.188;2024-02-26T04:17:34;3.07;;;2.37;;
35578;SDS011;21687;48.900;9.188;2024-02-26T04:20:01;2.50;;;2.30;;
35578;SDS011;21687;48.900;9.188;2024-02-26T04:22:28;2.47;;;2.10;;
35578;SDS011;21687;48.900;9.188;2024-02-26T04:24:54;2.20;;;2.00;;
35578;SDS011;21687;48.900;9.188;2024-02-26T04:27:21;2.67;;;2.47;;
35578;SDS011;21687;48.900;9.188;2024-02-26T04:29:47;2.30;;;2.10;;
35578;SDS011;21687;48.900;9.188;2024-02-26T04:32:13;2.37;;;2.17;;
35578;SDS011;21687;48.900;9.188;2024-02-26T04:34:39;3.17;;;2.47;;
35578;SDS011;21687;48.900;9.188;2024-02-26T04:37:07;2.60;;;2.40;;
35578;SDS011;21687;48.900;9.188;2024-02-26T04:39:33;2.97;;;2.00;;
35578;SDS011;21687;48.900;9.188;2024-02-26T04:41:59;2.53;;;2.10;;
35578;SDS011;21687;48.900;9.188;2024-02-26T04:44:29;2.50;;;2.30;;
35578;SDS011;21687;48.900;9.188;2024-02-26T04:46:55;2.30;;;2.10;;
35578;SDS011;21687;48.900;9.188;2024-02-26T04:49:21;2.63;;;2.40;;
35578;SDS011;21687;48.900;9.188;2024-02-26T04:51:48;3.00;;;2.30;;
35578;SDS011;21687;48.900;9.188;2024-02-26T04:54:15;2.50;;;2.30;;
35578;SDS011;21687;48.900;9.188;2024-02-26T04:56:42;2.20;;;2.00;;
35578;SDS011;21687;48.900;9.188;2024-02-26T04:59:09;2.17;;;1.90;;
35578;SDS011;21687;48.900;9.188;2024-02-26T05:01:35;2.20;;;2.00;;
35578;SDS011;21687;48.900;9.188;2024-02-26T05:04:02;3.37;;;2.20;;
35578;SDS011;21687;48.900;9.188;2024-02-26T05:06:28;2.13;;;2.00;;
35578;SDS011;21687;48.900;9.188;2024-02-26T05:08:54;3.60;;;2.20;;
35578;SDS011;21687;48.900;9.188;2024-02-26T05:11:21;2.60;;;2.37;;
35578;SDS011;21687;48.900;9.188;2024-02-26T05:13:47;2.30;;;2.10;;
35578;SDS011;21687;48.900;9.188;2024-02-26T05:16:14;2.73;;;2.10;;
35578;SDS011;21687;48.900;9.188;2024-02-26T05:18:40;2.87;;;2.13;;
35578;SDS011;21687;48.900;9.188;2024-02-26T05:21:06;2.87;;;2.07;;
35578;SDS011;21687;48.900;9.188;2024-02-26T05:23:32;7.23;;;2.83;;
35578;SDS011;21687;48.900;9.188;2024-02-26T05:25:59;2.23;;;2.03;;
35578;SDS011;21687;48.900;9.188;2024-02-26T05:28:25;2.50;;;2.00;;
35578;SDS011;21687;48.900;9.188;2024-02-26T05:30:51;3.23;;;2.50;;
35578;SDS011;21687;48.900;9.188;2024-02-26T05:33:18;2.40;;;2.20;;
35578;SDS011;21687;48.900;9.188;2024-02-26T05:35:44;3.03;;;2.50;;
35578;SDS011;21687;48.900;9.188;2024-02-26T05:38:10;2.20;;;2.00;;
35578;SDS011;21687;48.900;9.188;2024-02-26T05:40:36;3.33;;;2.30;;
35578;SDS011;21687;48.900;9.188;2024-02-26T05:43:03;2.63;;;2.20;;
35578;SDS011;21687;48.900;9.188;2024-02-26T05:45:30;2.10;;;1.97;;
35578;SDS011;21687;48.900;9.188;2024-02-26T05:47:56;2.37;;;2.17;;
35578;SDS011;21687;48.900;9.188;2024-02-26T05:50:22;3.77;;;2.20;;
35578;SDS011;21687;48.900;9.188;2024-02-26T05:52:48;7.20;;;2.80;;
35578;SDS011;21687;48.900;9.188;2024-02-26T05:55:15;3.70;;;2.20;;
35578;SDS011;21687;48.900;9.188;2024-02-26T05:57:41;4.43;;;2.50;;
35578;SDS011;21687;48.900;9.188;2024-02-26T06:00:08;4.07;;;2.57;;
35578;SDS011;21687;48.900;9.188;2024-02-26T06:02:34;3.03;;;2.20;;
35578;SDS011;21687;48.900;9.188;2024-02-26T06:05:01;4.50;;;3.00;;
35578;SDS011;21687;48.900;9.188;2024-02-26T06:07:28;2.73;;;2.20;;
35578;SDS011;21687;48.900;9.188;2024-02-26T06:09:54;2.60;;;2.40;;
35578;SDS011;21687;48.900;9.188;2024-02-26T06:12:20;4.43;;;3.00;;
35578;SDS011;21687;48.900;9.188;2024-02-26T06:14:47;3.80;;;2.83;;
35578;SDS011;21687;48.900;9.188;2024-02-26T06:17:13;3.37;;;3.07;;
35578;SDS011;21687;48.900;9.188;2024-02-26T06:19:39;3.13;;;2.63;;
35578;SDS011;21687;48.900;9.188;2024-02-26T06:22:06;5.40;;;3.20;;
35578;SDS011;21687;48.900;9.188;2024-02-26T06:24:34;2.90;;;2.70;;
35578;SDS011;21687;48.900;9.188;2024-02-26T06:27:00;3.20;;;2.80;;
35578;SDS011;21687;48.900;9.188;2024-02-26T06:29:26;3.93;;;3.23;;
35578;SDS011;21687;48.900;9.188;2024-02-26T06:31:52;4.50;;;2.90;;
35578;SDS011;21687;48.900;9.188;2024-02-26T06:34:19;4.90;;;3.10;;
35578;SDS011;21687;48.900;9.188;2024-02-26T06:36:45;3.63;;;3.23;;
35578;SDS011;21687;48.900;9.188;2024-02-26T06:39:12;3.83;;;3.30;;
35578;SDS011;21687;48.900;9.188;2024-02-26T06:41:40;4.13;;;3.27;;
35578;SDS011;21687;48.900;9.188;2024-02-26T06:44:06;4.50;;;3.60;;
35578;SDS011;21687;48.900;9.188;2024-02-26T06:46:32;4.90;;;3.70;;
35578;SDS011;21687;48.900;9.188;2024-02-26T06:48:59;5.40;;;4.00;;
35578;SDS011;21687;48.900;9.188;2024-02-26T06:51:25;5.03;;;3.87;;
35578;SDS011;21687;48.900;9.188;2024-02-26T06:53:51;5.20;;;3.47;;
35578;SDS011;21687;48.900;9.188;2024-02-26T06:56:18;4.57;;;3.97;;
35578;SDS011;21687;48.900;9.188;2024-02-26T06:58:44;3.90;;;3.23;;
35578;SDS011;21687;48.900;9.188;2024-02-26T07:01:11;4.23;;;3.37;;
35578;SDS011;21687;48.900;9.188;2024-02-26T07:03:40;4.17;;;3.07;;
35578;SDS011;21687;48.900;9.188;2024-02-26T07:06:06;4.47;;;3.50;;
35578;SDS011;21687;48.900;9.188;2024-02-26T07:08:33;4.00;;;3.33;;
35578;SDS011;21687;48.900;9.188;2024-02-26T07:11:00;4.70;;;3.67;;
35578;SDS011;21687;48.900;9.188;2024-02-26T07:13:26;4.20;;;3.40;;
35578;SDS011;21687;48.900;9.188;2024-02-26T07:15:52;3.80;;;3.17;;
35578;SDS011;21687;48.900;9.188;2024-02-26T07:18:18;5.47;;;3.33;;
35578;SDS011;21687;48.900;9.188;2024-02-26T07:20:44;3.70;;;3.30;;
35578;SDS011;21687;48.900;9.188;2024-02-26T07:23:11;3.60;;;3.30;;
35578;SDS011;21687;48.900;9.188;2024-02-26T07:25:38;4.67;;;3.53;;
35578;SDS011;21687;48.900;9.188;2024-02-26T07:28:04;4.30;;;3.30;;
35578;SDS011;21687;48.900;9.188;2024-02-26T07:30:31;4.13;;;3.60;;
35578;SDS011;21687;48.900;9.188;2024-02-26T07:32:57;5.33;;;3.77;;
35578;SDS011;21687;48.900;9.188;2024-02-26T07:35:24;4.47;;;3.23;;
35578;SDS011;21687;48.900;9.188;2024-02-26T07:37:50;5.80;;;3.57;;
35578;SDS011;21687;48.900;9.188;2024-02-26T07:40:17;5.50;;;3.90;;
35578;SDS011;21687;48.900;9.188;2024-02-26T07:42:43;5.03;;;3.17;;
35578;SDS011;21687;48.900;9.188;2024-02-26T07:45:10;3.73;;;3.23;;
35578;SDS011;21687;48.900;9.188;2024-02-26T07:47:36;4.13;;;3.40;;
35578;SDS011;21687;48.900;9.188;2024-02-26T07:50:06;4.23;;;3.13;;
35578;SDS011;21687;48.900;9.188;2024-02-26T07:52:33;5.30;;;3.23;;
35578;SDS011;21687;48.900;9.188;2024-02-26T07:55:00;3.83;;;3.27;;
35578;SDS011;21687;48.900;9.188;2024-02-26T07:57:26;7.17;;;3.43;;
35578;SDS011;21687;48.900;9.188;2024-02-26T07:59:52;6.47;;;3.30;;
35578;SDS011;21687;48.900;9.188;2024-02-26T08:02:19;3.10;;;2.77;;
35578;SDS011;21687;48.900;9.188;2024-02-26T08:04:46;5.47;;;3.63;;
35578;SDS011;21687;48.900;9.188;2024-02-26T08:07:12;8.20;;;3.70;;
35578;SDS011;21687;48.900;9.188;2024-02-26T08:09:39;4.63;;;3.40;;
35578;SDS011;21687;48.900;9.188;2024-02-26T08:12:05;9.77;;;3.93;;
35578;SDS011;21687;48.900;9.188;2024-02-26T08:14:31;6.87;;;3.63;;
35578;SDS011;21687;48.900;9.188;2024-02-26T08:16:58;3.97;;;3.57;;
35578;SDS011;21687;48.900;9.188;2024-02-26T08:19:25;9.07;;;5.30;;
35578;SDS011;21687;48.900;9.188;2024-02-26T08:21:52;6.07;;;4.23;;
35578;SDS011;21687;48.900;9.188;2024-02-26T08:24:18;6.07;;;4.17;;
35578;SDS011;21687;48.900;9.188;2024-02-26T08:26:44;10.00;;;4.40;;
35578;SDS011;21687;48.900;9.188;2024-02-26T08:29:11;8.33;;;4.57;;
35578;SDS011;21687;48.900;9.188;2024-02-26T08:31:37;6.07;;;4.10;;
35578;SDS011;21687;48.900;9.188;2024-02-26T08:34:03;10.87;;;4.70;;
35578;SDS011;21687;48.900;9.188;2024-02-26T08:36:31;6.07;;;4.20;;
35578;SDS011;21687;48.900;9.188;2024-02-26T08:38:58;7.93;;;4.00;;
35578;SDS011;21687;48.900;9.188;2024-02-26T08:41:24;7.43;;;4.10;;
35578;SDS011;21687;48.900;9.188;2024-02-26T08:43:51;4.63;;;3.60;;
35578;SDS011;21687;48.900;9.188;2024-02-26T08:46:17;7.77;;;4.10;;
35578;SDS011;21687;48.900;9.188;2024-02-26T08:48:43;7.97;;;3.70;;
35578;SDS011;21687;48.900;9.188;2024-02-26T08:51:10;8.90;;;4.20;;
35578;SDS011;21687;48.900;9.188;2024-02-26T08:53:36;6.67;;;4.10;;
35578;SDS011;21687;48.900;9.188;2024-02-26T08:56:02;5.63;;;4.10;;
35578;SDS011;21687;48.900;9.188;2024-02-26T08:58:29;5.67;;;3.90;;
35578;SDS011;21687;48.900;9.188;2024-02-26T09:00:55;5.70;;;4.10;;
35578;SDS011;21687;48.900;9.188;2024-02-26T09:03:22;6.80;;;3.63;;
35578;SDS011;21687;48.900;9.188;2024-02-26T09:05:49;7.60;;;4.10;;
35578;SDS011;21687;48.900;9.188;2024-02-26T09:08:15;5.10;;;3.80;;
35578;SDS011;21687;48.900;9.188;2024-02-26T09:10:42;5.63;;;3.83;;
35578;SDS011;21687;48.900;9.188;2024-02-26T09:13:08;5.50;;;4.20;;
35578;SDS011;21687;48.900;9.188;2024-02-26T09:15:34;8.90;;;4.47;;
35578;SDS011;21687;48.900;9.188;2024-02-26T09:18:00;4.63;;;3.63;;
35578;SDS011;21687;48.900;9.188;2024-02-26T09:20:28;6.30;;;3.80;;
35578;SDS011;21687;48.900;9.188;2024-02-26T09:22:54;5.23;;;3.63;;
35578;SDS011;21687;48.900;9.188;2024-02-26T09:25:21;6.70;;;4.00;;
35578;SDS011;21687;48.900;9.188;2024-02-26T09:27:47;4.30;;;3.30;;
35578;SDS011;21687;48.900;9.188;2024-02-26T09:30:13;4.37;;;3.37;;
35578;SDS011;21687;48.900;9.188;2024-02-26T09:32:40;4.27;;;3.10;;
35578;SDS011;21687;48.900;9.188;2024-02-26T09:35:06;4.73;;;3.40;;
35578;SDS011;21687;48.900;9.188;2024-02-26T09:37:33;3.73;;;2.87;;
35578;SDS011;21687;48.900;9.188;2024-02-26T09:39:59;5.20;;;2.93;;
35578;SDS011;21687;48.900;9.188;2024-02-26T09:42:26;2.70;;;2.50;;
35578;SDS011;21687;48.900;9.188;2024-02-26T09:44:53;3.93;;;2.93;;
35578;SDS011;21687;48.900;9.188;2024-02-26T09:47:21;4.97;;;2.87;;
35578;SDS011;21687;48.900;9.188;2024-02-26T09:49:52;3.37;;;3.00;;
35578;SDS011;21687;48.900;9.188;2024-02-26T09:52:21;3.43;;;3.10;;
35578;SDS011;21687;48.900;9.188;2024-02-26T09:54:48;3.40;;;2.90;;
35578;SDS011;21687;48.900;9.188;2024-02-26T09:57:15;3.10;;;2.83;;
35578;SDS011;21687;48.900;9.188;2024-02-26T09:59:42;3.53;;;3.20;;
35578;SDS011;21687;48.900;9.188;2024-02-26T10:02:13;5.27;;;3.80;;
35578;SDS011;21687;48.900;9.188;2024-02-26T10:04:40;3.33;;;2.77;;
35578;SDS011;21687;48.900;9.188;2024-02-26T10:07:09;4.10;;;3.07;;
35578;SDS011;21687;48.900;9.188;2024-02-26T10:09:37;3.10;;;2.60;;
35578;SDS011;21687;48.900;9.188;2024-02-26T10:12:04;2.80;;;2.50;;
35578;SDS011;21687;48.900;9.188;2024-02-26T10:14:32;3.67;;;3.03;;
35578;SDS011;21687;48.900;9.188;2024-02-26T10:16:59;3.23;;;2.53;;
35578;SDS011;21687;48.900;9.188;2024-02-26T10:19:26;2.73;;;2.30;;
35578;SDS011;21687;48.900;9.188;2024-02-26T10:21:56;2.60;;;2.40;;
35578;SDS011;21687;48.900;9.188;2024-02-26T10:24:23;3.03;;;2.53;;
35578;SDS011;21687;48.900;9.188;2024-02-26T10:26:50;2.97;;;2.60;;
35578;SDS011;21687;48.900;9.188;2024-02-26T10:29:19;3.13;;;2.63;;
35578;SDS011;21687;48.900;9.188;2024-02-26T10:31:46;6.63;;;2.53;;
35578;SDS011;21687;48.900;9.188;2024-02-26T10:34:12;2.90;;;2.60;;
35578;SDS011;21687;48.900;9.188;2024-02-26T10:36:42;3.60;;;2.40;;
35578;SDS011;21687;48.900;9.188;2024-02-26T10:39:09;3.37;;;2.50;;
35578;SDS011;21687;48.900;9.188;2024-02-26T10:41:37;2.83;;;2.40;;
35578;SDS011;21687;48.900;9.188;2024-02-26T10:44:03;2.33;;;2.13;;
35578;SDS011;21687;48.900;9.188;2024-02-26T10:46:30;4.00;;;2.57;;
35578;SDS011;21687;48.900;9.188;2024-02-26T10:48:56;2.87;;;2.50;;
35578;SDS011;21687;48.900;9.188;2024-02-26T10:51:29;3.53;;;2.23;;
35578;SDS011;21687;48.900;9.188;2024-02-26T10:53:57;2.77;;;2.57;;
35578;SDS011;21687;48.900;9.188;2024-02-26T10:56:27;2.50;;;2.30;;
35578;SDS011;21687;48.900;9.188;2024-02-26T10:58:57;2.80;;;2.13;;
35578;SDS011;21687;48.900;9.188;2024-02-26T11:01:25;2.77;;;2.10;;
35578;SDS011;21687;48.900;9.188;2024-02-26T11:03:57;2.50;;;2.00;;
35578;SDS011;21687;48.900;9.188;2024-02-26T11:06:24;2.87;;;2.40;;
35578;SDS011;21687;48.900;9.188;2024-02-26T11:08:52;2.13;;;1.97;;
35578;SDS011;21687;48.900;9.188;2024-02-26T11:11:19;5.50;;;2.40;;
35578;SDS011;21687;48.900;9.188;2024-02-26T11:13:47;2.20;;;1.90;;
35578;SDS011;21687;48.900;9.188;2024-02-26T11:16:19;9.47;;;2.50;;
35578;SDS011;21687;48.900;9.188;2024-02-26T11:18:47;2.10;;;1.90;;
35578;SDS011;21687;48.900;9.188;2024-02-26T11:21:17;2.20;;;1.80;;
35578;SDS011;21687;48.900;9.188;2024-02-26T11:23:45;2.37;;;2.07;;
35578;SDS011;21687;48.900;9.188;2024-02-26T11:26:12;2.30;;;2.10;;
35578;SDS011;21687;48.900;9.188;2024-02-26T11:28:41;2.20;;;2.00;;
35578;SDS011;21687;48.900;9.188;2024-02-26T11:31:09;2.40;;;2.20;;
35578;SDS011;21687;48.900;9.188;2024-02-26T11:33:35;2.90;;;2.07;;
35578;SDS011;21687;48.900;9.188;2024-02-26T11:36:07;2.27;;;1.70;;
35578;SDS011;21687;48.900;9.188;2024-02-26T11:38:37;1.70;;;1.60;;
35578;SDS011;21687;48.900;9.188;2024-02-26T11:41:04;1.90;;;1.80;;
35578;SDS011;21687;48.900;9.188;2024-02-26T11:46:30;2.53;;;1.80;;
35578;SDS011;21687;48.900;9.188;2024-02-26T11:49:01;2.27;;;1.70;;
35578;SDS011;21687;48.900;9.188;2024-02-26T11:51:32;1.63;;;1.40;;
35578;SDS011;21687;48.900;9.188;2024-02-26T11:54:00;2.23;;;1.50;;
35578;SDS011;21687;48.900;9.188;2024-02-26T11:56:26;1.50;;;1.40;;
35578;SDS011;21687;48.900;9.188;2024-02-26T11:59:01;2.30;;;1.83;;
35578;SDS011;21687;48.900;9.188;2024-02-26T12:01:35;1.70;;;1.60;;
35578;SDS011;21687;48.900;9.188;2024-02-26T12:04:22;2.47;;;1.70;;
35578;SDS011;21687;48.900;9.188;2024-02-26T12:07:01;2.17;;;1.60;;
35578;SDS011;21687;48.900;9.188;2024-02-26T12:09:38;8.93;;;2.00;;
35578;SDS011;21687;48.900;9.188;2024-02-26T12:12:10;2.03;;;1.60;;
35578;SDS011;21687;48.900;9.188;2024-02-26T12:14:52;2.67;;;1.63;;
35578;SDS011;21687;48.900;9.188;2024-02-26T12:17:21;2.60;;;1.90;;
35578;SDS011;21687;48.900;9.188;2024-02-26T12:19:48;2.33;;;1.70;;
35578;SDS011;21687;48.900;9.188;2024-02-26T12:22:15;2.03;;;1.83;;
35578;SDS011;21687;48.900;9.188;2024-02-26T12:24:45;4.47;;;1.87;;
35578;SDS011;21687;48.900;9.188;2024-02-26T12:27:11;2.07;;;1.87;;
35578;SDS011;21687;48.900;9.188;2024-02-26T12:29:39;2.77;;;1.47;;
35578;SDS011;21687;48.900;9.188;2024-02-26T12:32:06;2.60;;;1.80;;
35578;SDS011;21687;48.900;9.188;2024-02-26T12:34:32;2.13;;;1.80;;
35578;SDS011;21687;48.900;9.188;2024-02-26T12:36:59;2.30;;;1.50;;
35578;SDS011;21687;48.900;9.188;2024-02-26T12:39:26;2.30;;;1.80;;
35578;SDS011;21687;48.900;9.188;2024-02-26T12:41:52;2.70;;;1.80;;
35578;SDS011;21687;48.900;9.188;2024-02-26T12:44:24;1.80;;;1.60;;
35578;SDS011;21687;48.900;9.188;2024-02-26T12:46:51;1.87;;;1.70;;
35578;SDS011;21687;48.900;9.188;2024-02-26T12:49:29;2.77;;;1.47;;
35578;SDS011;21687;48.900;9.188;2024-02-26T12:51:55;1.70;;;1.60;;
35578;SDS011;21687;48.900;9.188;2024-02-26T12:54:32;1.93;;;1.70;;
35578;SDS011;21687;48.900;9.188;2024-02-26T12:57:00;2.30;;;1.60;;
35578;SDS011;21687;48.900;9.188;2024-02-26T12:59:29;1.97;;;1.60;;
35578;SDS011;21687;48.900;9.188;2024-02-26T13:01:56;1.70;;;1.60;;
35578;SDS011;21687;48.900;9.188;2024-02-26T13:04:23;1.40;;;1.30;;
35578;SDS011;21687;48.900;9.188;2024-02-26T13:06:50;1.50;;;1.40;;
35578;SDS011;21687;48.900;9.188;2024-02-26T13:09:17;1.60;;;1.50;;
35578;SDS011;21687;48.900;9.188;2024-02-26T13:11:44;1.60;;;1.50;;
35578;SDS011;21687;48.900;9.188;2024-02-26T13:14:19;1.83;;;1.60;;
35578;SDS011;21687;48.900;9.188;2024-02-26T13:16:54;2.87;;;1.53;;
35578;SDS011;21687;48.900;9.188;2024-02-26T13:19:23;1.57;;;1.40;;
35578;SDS011;21687;48.900;9.188;2024-02-26T13:21:50;5.23;;;1.43;;
35578;SDS011;21687;48.900;9.188;2024-02-26T13:24:16;1.73;;;1.53;;
35578;SDS011;21687;48.900;9.188;2024-02-26T13:26:45;3.60;;;2.23;;
35578;SDS011;21687;48.900;9.188;2024-02-26T13:29:18;3.87;;;1.53;;
35578;SDS011;21687;48.900;9.188;2024-02-26T13:31:44;1.93;;;1.73;;
35578;SDS011;21687;48.900;9.188;2024-02-26T13:34:22;1.40;;;1.30;;
35578;SDS011;21687;48.900;9.188;2024-02-26T13:36:55;1.17;;;1.10;;
35578;SDS011;21687;48.900;9.188;2024-02-26T13:39:23;1.53;;;1.40;;
35578;SDS011;21687;48.900;9.188;2024-02-26T13:41:50;1.90;;;1.43;;
35578;SDS011;21687;48.900;9.188;2024-02-26T13:44:17;1.17;;;1.07;;
35578;SDS011;21687;48.900;9.188;2024-02-26T13:46:44;2.20;;;1.30;;
35578;SDS011;21687;48.900;9.188;2024-02-26T13:49:11;1.23;;;1.13;;
35578;SDS011;21687;48.900;9.188;2024-02-26T13:51:41;1.20;;;1.10;;
35578;SDS011;21687;48.900;9.188;2024-02-26T13:54:07;2.50;;;1.23;;
35578;SDS011;21687;48.900;9.188;2024-02-26T13:56:38;3.17;;;1.00;;
35578;SDS011;21687;48.900;9.188;2024-02-26T13:59:05;2.53;;;0.80;;
35578;SDS011;21687;48.900;9.188;2024-02-26T14:01:31;0.87;;;0.87;;
35578;SDS011;21687;48.900;9.188;2024-02-26T14:03:58;1.83;;;1.40;;
35578;SDS011;21687;48.900;9.188;2024-02-26T14:06:26;1.37;;;0.77;;
35578;SDS011;21687;48.900;9.188;2024-02-26T14:08:53;0.80;;;0.80;;
35578;SDS011;21687;48.900;9.188;2024-02-26T14:11:19;0.40;;;0.40;;
35578;SDS011;21687;48.900;9.188;2024-02-26T14:13:45;0.57;;;0.57;;
35578;SDS011;21687;48.900;9.188;2024-02-26T14:16:12;0.47;;;0.47;;
35578;SDS011;21687;48.900;9.188;2024-02-26T14:18:39;1.03;;;0.70;;
35578;SDS011;21687;48.900;9.188;2024-02-26T14:21:09;1.53;;;0.70;;
35578;SDS011;21687;48.900;9.188;2024-02-26T14:23:35;0.97;;;0.80;;
35578;SDS011;21687;48.900;9.188;2024-02-26T14:26:02;0.80;;;0.80;;
35578;SDS011;21687;48.900;9.188;2024-02-26T14:28:32;0.70;;;0.70;;
35578;SDS011;21687;48.900;9.188;2024-02-26T14:30:59;3.20;;;0.73;;
35578;SDS011;21687;48.900;9.188;2024-02-26T14:33:26;0.60;;;0.60;;
35578;SDS011;21687;48.900;9.188;2024-02-26T14:35:52;2.53;;;0.70;;
35578;SDS011;21687;48.900;9.188;2024-02-26T14:38:19;0.83;;;0.77;;
35578;SDS011;21687;48.900;9.188;2024-02-26T14:40:46;0.53;;;0.53;;
35578;SDS011;21687;48.900;9.188;2024-02-26T14:43:12;1.60;;;1.00;;
35578;SDS011;21687;48.900;9.188;2024-02-26T14:45:38;0.80;;;0.77;;
35578;SDS011;21687;48.900;9.188;2024-02-26T14:48:05;2.83;;;0.90;;
35578;SDS011;21687;48.900;9.188;2024-02-26T14:50:32;2.30;;;1.00;;